Flugplatz - Wetter - Augsburg

[Quelle: ADDS]
METAR
EDMA 221850Z 03003KT CAVOK 18/11 Q1017 =
TAF
EDMA 221700Z 2218/2303 24004KT CAVOK =
SR / SS: 03:30 / 19:01 UTC (Günzburg 2017-05-22)

Flugplatz - Wetter - Laupheim

[Quelle: ADDS]
METAR
ETHL 221820Z 04004KT 9999 FEW060 20/09 Q1017 BLU+BLU+ =
TAF
ETHL 221615Z 2217/2302 VRB03KT 9999 NSW FEW050 =

Notice: Undefined index: sun in /homepages/1/d158740339/htdocs/joomla/modules/mod_wx/tmpl/default.php on line 13

Flugplatz - Wetter - Memmingen

[Quelle: ADDS]
METAR
EDJA 221850Z 05004KT CAVOK 17/11 Q1017 =
TAF
EDJA 221700Z 2218/2303 20003KT CAVOK =

Notice: Undefined index: sun in /homepages/1/d158740339/htdocs/joomla/modules/mod_wx/tmpl/default.php on line 13

Flugplatz - Wetter - Neuburg/Donau

[Quelle: ADDS]
METAR
ETSN 221820Z 36003KT 9999 FEW050 20/09 Q1017 BLU+ =
TAF
ETSN 221900Z 2220/2305 VRB03KT 9999 NSW FEW050 PROB30 2303/2305 VRB03KT 4000 MIFG SKC BY ETGL =

Notice: Undefined index: sun in /homepages/1/d158740339/htdocs/joomla/modules/mod_wx/tmpl/default.php on line 13

Flugplatz - Wetter - Stuttgart

[Quelle: ADDS]
METAR
EDDS 221850Z 01005KT CAVOK 19/10 Q1017 NOSIG =
TAF
EDDS 221700Z 2218/2318 VRB03KT CAVOK BECMG 2309/2312 28006KT =

Notice: Undefined index: sun in /homepages/1/d158740339/htdocs/joomla/modules/mod_wx/tmpl/default.php on line 13

Flugplatz - Wetter - Niederstetten

[Quelle: ADDS]
METAR
ETHN 221820Z 01003KT 9999 FEW260 17/08 Q1017 BLU+ =
TAF
ETHN 221324Z 2214/2223 09010KT 9999 NSW FEW050 SCT070 =

Notice: Undefined index: sun in /homepages/1/d158740339/htdocs/joomla/modules/mod_wx/tmpl/default.php on line 13